Terminal Aerodrome Forecast
Issued by NWS Wilmington, OH

Current Version | Previous Version | Text Only | Print | Product List | Glossary Off
Versions: 1 2 3 4 5 6 7 8 9 10 11 12 13 14 15 16 17 18 19

000
FTUS41 KILN 271100
TAFDAY
TAF
KDAY 271138Z 2712/2812 30005KT P6SM SCT040 BKN100
     FM271400 35007KT P6SM VCTS BKN060CB
     FM271800 01005KT P6SM BKN090
     FM280000 05005KT P6SM SCT100 BKN250=

USA.gov is the U.S. government's official web portal to all federal, state and local government web resources and services.